createdAt,value
2023-04-30T00:00:05.005Z,4.1
2023-04-30T00:05:00.962Z,4.0
2023-04-30T00:10:00.902Z,3.9
2023-04-30T00:15:01.073Z,3.8
2023-04-30T00:20:00.925Z,3.7
2023-04-30T00:25:01.978Z,3.6
2023-04-30T00:30:01.973Z,3.6
2023-04-30T00:45:01.419Z,3.6
2023-04-30T01:00:03.418Z,3.6
2023-04-30T01:10:01.041Z,3.7
2023-04-30T01:15:01.014Z,3.9
2023-04-30T01:20:00.890Z,4.0
2023-04-30T01:25:01.020Z,4.1
2023-04-30T01:30:01.004Z,4.2
2023-04-30T01:35:03.014Z,4.3
2023-04-30T01:45:01.023Z,4.2
2023-04-30T02:00:04.184Z,4.1
2023-04-30T02:05:01.226Z,4.0
2023-04-30T02:15:00.969Z,3.9
2023-04-30T02:20:01.332Z,3.8
2023-04-30T02:25:01.800Z,3.7
2023-04-30T02:30:15.751Z,3.6
2023-04-30T02:55:01.388Z,3.2
2023-04-30T03:00:03.731Z,3.2
2023-04-30T03:15:02.210Z,3.1
2023-04-30T03:25:01.222Z,3.0
2023-04-30T03:30:01.293Z,3.0
2023-04-30T03:55:00.912Z,3.3
2023-04-30T04:00:01.270Z,3.3
2023-04-30T04:15:00.887Z,3.3
2023-04-30T04:30:00.852Z,3.3
2023-04-30T04:40:01.076Z,3.4
2023-04-30T04:45:00.851Z,3.5
2023-04-30T04:55:15.632Z,3.7
2023-04-30T05:15:00.658Z,4.8
2023-04-30T05:25:15.303Z,4.9
2023-04-30T05:30:00.473Z,4.9
2023-04-30T05:35:00.500Z,5.0
2023-04-30T05:40:15.282Z,5.2
2023-04-30T06:05:01.096Z,6.8
2023-04-30T06:15:01.095Z,7.1
2023-04-30T06:20:00.983Z,7.2
2023-04-30T06:25:02.084Z,7.4
2023-04-30T06:30:01.929Z,7.6
2023-04-30T06:35:01.095Z,8.0
2023-04-30T06:40:15.799Z,8.2
2023-04-30T07:05:00.836Z,9.2
2023-04-30T07:15:01.540Z,9.3
2023-04-30T07:20:01.525Z,9.4
2023-04-30T07:30:00.817Z,9.5
2023-04-30T07:35:00.696Z,9.6
2023-04-30T07:45:01.676Z,9.7
2023-04-30T07:55:15.473Z,9.8
2023-04-30T08:15:01.408Z,10.5
2023-04-30T08:25:06.463Z,10.4
2023-04-30T08:30:02.205Z,10.4
2023-04-30T08:35:02.307Z,10.5
2023-04-30T08:45:01.327Z,10.6
2023-04-30T08:50:01.263Z,10.8
2023-04-30T08:55:02.375Z,10.9
2023-04-30T09:00:02.945Z,10.9
2023-04-30T09:10:01.670Z,10.7
2023-04-30T09:15:01.438Z,10.8
2023-04-30T09:20:01.289Z,11.0
2023-04-30T09:25:01.584Z,11.1
2023-04-30T09:30:02.095Z,11.2
2023-04-30T09:35:01.574Z,11.5
2023-04-30T09:40:02.146Z,11.7
2023-04-30T09:45:01.657Z,11.7
2023-04-30T09:50:01.279Z,11.9
2023-04-30T09:55:01.371Z,12.1
2023-04-30T10:00:04.109Z,12.1
2023-04-30T10:05:01.416Z,12.3
2023-04-30T10:10:01.434Z,12.6
2023-04-30T10:15:02.107Z,12.6
2023-04-30T10:25:16.094Z,12.8
2023-04-30T10:45:00.641Z,13.7
2023-04-30T10:55:00.528Z,13.9
2023-04-30T11:00:00.536Z,14.0
2023-04-30T11:05:15.466Z,14.1
2023-04-30T11:25:01.094Z,13.6
2023-04-30T11:30:00.950Z,13.6
2023-04-30T11:35:01.858Z,13.7
2023-04-30T11:45:01.259Z,13.6
2023-04-30T11:55:00.987Z,13.7
2023-04-30T12:00:03.806Z,13.8
2023-04-30T12:05:00.992Z,13.9
2023-04-30T12:10:00.929Z,14.2
2023-04-30T12:15:01.951Z,14.4
2023-04-30T12:20:00.951Z,14.6
2023-04-30T12:25:01.091Z,14.7
2023-04-30T12:30:01.211Z,14.7
2023-04-30T12:35:01.158Z,14.8
2023-04-30T12:45:01.832Z,14.8
2023-04-30T12:50:01.681Z,14.9
2023-04-30T12:55:01.966Z,15.0
2023-04-30T13:00:02.722Z,15.1
2023-04-30T13:05:01.967Z,15.2
2023-04-30T13:10:01.934Z,15.3
2023-04-30T13:15:01.060Z,15.4
2023-04-30T13:20:00.947Z,15.5
2023-04-30T13:30:01.010Z,15.5
2023-04-30T13:45:35.206Z,15.5
2023-04-30T13:55:01.829Z,15.6
2023-04-30T14:00:03.499Z,15.7
2023-04-30T14:10:01.134Z,15.6
2023-04-30T14:15:01.127Z,15.7
2023-04-30T14:20:00.881Z,15.8
2023-04-30T14:30:01.105Z,15.9
2023-04-30T14:35:01.633Z,16.0
2023-04-30T14:45:26.207Z,16.1
2023-04-30T14:50:01.131Z,16.2
2023-04-30T15:00:15.738Z,16.2
2023-04-30T15:05:01.805Z,16.3
2023-04-30T15:15:17.406Z,16.2
2023-04-30T15:35:01.788Z,16.2
2023-04-30T15:45:00.928Z,16.1
2023-04-30T16:00:04.037Z,16.1
2023-04-30T16:10:00.999Z,16.2
2023-04-30T16:15:15.734Z,16.3
2023-04-30T16:35:00.582Z,17.7
2023-04-30T16:45:00.465Z,17.7
2023-04-30T16:50:00.653Z,17.6
2023-04-30T17:00:03.016Z,17.6
2023-04-30T17:05:00.470Z,17.5
2023-04-30T17:10:00.823Z,17.4
2023-04-30T17:15:01.180Z,17.2
2023-04-30T17:20:00.484Z,17.0
2023-04-30T17:25:01.520Z,16.8
2023-04-30T17:30:00.472Z,16.7
2023-04-30T17:35:01.155Z,16.3
2023-04-30T17:40:00.534Z,16.0
2023-04-30T17:45:00.706Z,15.5
2023-04-30T17:50:00.979Z,15.0
2023-04-30T17:55:00.491Z,14.3
2023-04-30T18:00:04.070Z,14.0
2023-04-30T18:05:01.304Z,13.5
2023-04-30T18:10:00.607Z,13.3
2023-04-30T18:15:00.536Z,12.9
2023-04-30T18:20:01.447Z,12.7
2023-04-30T18:25:01.390Z,12.5
2023-04-30T18:30:00.515Z,12.3
2023-04-30T18:35:00.495Z,12.0
2023-04-30T18:40:01.457Z,11.8
2023-04-30T18:45:00.958Z,11.6
2023-04-30T18:50:00.569Z,11.4
2023-04-30T18:55:00.722Z,11.1
2023-04-30T19:00:01.106Z,10.9
2023-04-30T19:05:00.640Z,10.7
2023-04-30T19:10:00.704Z,10.5
2023-04-30T19:15:01.088Z,10.3
2023-04-30T19:20:00.525Z,10.1
2023-04-30T19:25:01.449Z,9.9
2023-04-30T19:30:01.189Z,9.8
2023-04-30T19:35:00.545Z,9.6
2023-04-30T19:40:00.544Z,9.5
2023-04-30T19:45:05.777Z,9.4
2023-04-30T19:50:00.521Z,9.3
2023-04-30T19:55:00.534Z,9.1
2023-04-30T20:00:00.900Z,9.1
2023-04-30T20:05:00.552Z,8.9
2023-04-30T20:10:01.455Z,8.8
2023-04-30T20:15:00.556Z,8.6
2023-04-30T20:20:01.096Z,8.5
2023-04-30T20:25:00.537Z,8.4
2023-04-30T20:30:01.923Z,8.4
2023-04-30T20:35:00.665Z,8.3
2023-04-30T20:40:00.574Z,8.2
2023-04-30T20:45:03.110Z,8.1
2023-04-30T20:50:00.510Z,8.0
2023-04-30T20:55:00.631Z,7.9
2023-04-30T21:00:00.939Z,7.8
2023-04-30T21:05:00.839Z,7.7
2023-04-30T21:10:01.030Z,7.6
2023-04-30T21:15:15.386Z,7.5
2023-04-30T21:35:15.522Z,7.0
2023-04-30T21:45:01.881Z,6.9
2023-04-30T22:00:03.114Z,6.8
2023-04-30T22:05:15.483Z,6.7
2023-04-30T22:25:02.223Z,6.2
2023-04-30T22:30:01.314Z,6.2
2023-04-30T22:45:01.282Z,6.1
2023-04-30T22:55:01.376Z,6.0
2023-04-30T23:00:03.228Z,5.9
2023-04-30T23:10:01.523Z,5.8
2023-04-30T23:15:01.319Z,5.8
2023-04-30T23:20:02.201Z,5.7
2023-04-30T23:25:01.370Z,5.6
2023-04-30T23:30:03.914Z,5.5
2023-04-30T23:35:05.673Z,5.4
2023-04-30T23:40:05.098Z,5.3
2023-04-30T23:45:03.047Z,5.2
2023-04-30T23:50:01.220Z,5.3
